sensor_id;sensor_type;location;lat;lon;timestamp;P1;durP1;ratioP1;P2;durP2;ratioP2
36443;SDS011;24692;45.642;13.806;2023-01-10T00:01:34;2.53;;;2.07;;
36443;SDS011;24692;45.642;13.806;2023-01-10T00:04:00;3.50;;;2.10;;
36443;SDS011;24692;45.642;13.806;2023-01-10T00:06:25;2.40;;;1.93;;
36443;SDS011;24692;45.642;13.806;2023-01-10T00:08:51;2.10;;;1.90;;
36443;SDS011;24692;45.642;13.806;2023-01-10T00:11:17;2.80;;;1.80;;
36443;SDS011;24692;45.642;13.806;2023-01-10T00:14:01;2.00;;;1.80;;
36443;SDS011;24692;45.642;13.806;2023-01-10T00:16:26;1.83;;;1.70;;
36443;SDS011;24692;45.642;13.806;2023-01-10T00:18:52;1.80;;;1.70;;
36443;SDS011;24692;45.642;13.806;2023-01-10T00:21:18;1.57;;;1.47;;
36443;SDS011;24692;45.642;13.806;2023-01-10T00:23:43;1.90;;;1.50;;
36443;SDS011;24692;45.642;13.806;2023-01-10T00:26:09;1.73;;;1.47;;
36443;SDS011;24692;45.642;13.806;2023-01-10T00:28:36;1.70;;;1.50;;
36443;SDS011;24692;45.642;13.806;2023-01-10T00:31:03;1.53;;;1.30;;
36443;SDS011;24692;45.642;13.806;2023-01-10T00:33:34;1.20;;;1.10;;
36443;SDS011;24692;45.642;13.806;2023-01-10T00:36:01;2.17;;;1.20;;
36443;SDS011;24692;45.642;13.806;2023-01-10T00:38:28;2.70;;;1.20;;
36443;SDS011;24692;45.642;13.806;2023-01-10T00:40:55;3.00;;;1.23;;
36443;SDS011;24692;45.642;13.806;2023-01-10T00:43:21;1.70;;;1.27;;
36443;SDS011;24692;45.642;13.806;2023-01-10T00:46:06;1.40;;;1.17;;
36443;SDS011;24692;45.642;13.806;2023-01-10T00:48:32;1.40;;;1.27;;
36443;SDS011;24692;45.642;13.806;2023-01-10T00:50:58;4.47;;;2.27;;
36443;SDS011;24692;45.642;13.806;2023-01-10T00:53:23;2.97;;;2.20;;
36443;SDS011;24692;45.642;13.806;2023-01-10T00:55:49;1.60;;;1.40;;
36443;SDS011;24692;45.642;13.806;2023-01-10T00:58:15;1.63;;;1.53;;
36443;SDS011;24692;45.642;13.806;2023-01-10T01:00:42;1.97;;;1.57;;
36443;SDS011;24692;45.642;13.806;2023-01-10T01:03:13;1.73;;;1.50;;
36443;SDS011;24692;45.642;13.806;2023-01-10T01:05:42;1.90;;;1.20;;
36443;SDS011;24692;45.642;13.806;2023-01-10T01:08:09;1.17;;;1.00;;
36443;SDS011;24692;45.642;13.806;2023-01-10T01:10:36;1.13;;;1.03;;
36443;SDS011;24692;45.642;13.806;2023-01-10T01:13:06;1.17;;;0.97;;
36443;SDS011;24692;45.642;13.806;2023-01-10T01:15:39;1.77;;;1.43;;
36443;SDS011;24692;45.642;13.806;2023-01-10T01:18:05;1.27;;;0.93;;
36443;SDS011;24692;45.642;13.806;2023-01-10T01:20:32;2.37;;;1.10;;
36443;SDS011;24692;45.642;13.806;2023-01-10T01:22:58;2.73;;;1.20;;
36443;SDS011;24692;45.642;13.806;2023-01-10T01:25:25;1.70;;;1.30;;
36443;SDS011;24692;45.642;13.806;2023-01-10T01:27:51;1.23;;;1.10;;
36443;SDS011;24692;45.642;13.806;2023-01-10T01:30:16;1.40;;;1.20;;
36443;SDS011;24692;45.642;13.806;2023-01-10T01:32:42;1.10;;;1.00;;
36443;SDS011;24692;45.642;13.806;2023-01-10T01:35:09;1.40;;;1.30;;
36443;SDS011;24692;45.642;13.806;2023-01-10T01:37:38;2.17;;;1.50;;
36443;SDS011;24692;45.642;13.806;2023-01-10T01:40:06;2.03;;;1.70;;
36443;SDS011;24692;45.642;13.806;2023-01-10T01:42:34;1.83;;;1.73;;
36443;SDS011;24692;45.642;13.806;2023-01-10T01:45:44;3.00;;;1.90;;
36443;SDS011;24692;45.642;13.806;2023-01-10T01:47:53;3.07;;;2.00;;
36443;SDS011;24692;45.642;13.806;2023-01-10T01:53:12;2.13;;;1.93;;
36443;SDS011;24692;45.642;13.806;2023-01-10T01:55:52;2.00;;;1.80;;
36443;SDS011;24692;45.642;13.806;2023-01-10T01:58:24;2.40;;;2.20;;
36443;SDS011;24692;45.642;13.806;2023-01-10T02:00:56;3.00;;;2.63;;
36443;SDS011;24692;45.642;13.806;2023-01-10T02:03:22;3.10;;;2.60;;
36443;SDS011;24692;45.642;13.806;2023-01-10T02:05:49;3.93;;;3.40;;
36443;SDS011;24692;45.642;13.806;2023-01-10T02:08:15;5.50;;;4.10;;
36443;SDS011;24692;45.642;13.806;2023-01-10T02:10:43;6.93;;;4.60;;
36443;SDS011;24692;45.642;13.806;2023-01-10T02:13:18;5.57;;;4.70;;
36443;SDS011;24692;45.642;13.806;2023-01-10T02:15:47;4.40;;;3.63;;
36443;SDS011;24692;45.642;13.806;2023-01-10T02:18:13;3.93;;;3.30;;
36443;SDS011;24692;45.642;13.806;2023-01-10T02:20:50;4.30;;;3.30;;
36443;SDS011;24692;45.642;13.806;2023-01-10T02:23:23;4.53;;;3.67;;
36443;SDS011;24692;45.642;13.806;2023-01-10T02:39:38;5.17;;;4.13;;
36443;SDS011;24692;45.642;13.806;2023-01-10T02:42:23;3.77;;;3.40;;
36443;SDS011;24692;45.642;13.806;2023-01-10T02:45:13;7.37;;;4.20;;
36443;SDS011;24692;45.642;13.806;2023-01-10T02:47:43;5.10;;;4.10;;
36443;SDS011;24692;45.642;13.806;2023-01-10T02:50:28;5.30;;;4.50;;
36443;SDS011;24692;45.642;13.806;2023-01-10T02:53:01;9.00;;;4.93;;
36443;SDS011;24692;45.642;13.806;2023-01-10T02:55:41;6.63;;;4.47;;
36443;SDS011;24692;45.642;13.806;2023-01-10T03:06:44;5.60;;;4.73;;
36443;SDS011;24692;45.642;13.806;2023-01-10T03:12:00;7.27;;;5.30;;
36443;SDS011;24692;45.642;13.806;2023-01-10T03:14:49;6.07;;;5.00;;
36443;SDS011;24692;45.642;13.806;2023-01-10T03:17:15;6.67;;;5.07;;
36443;SDS011;24692;45.642;13.806;2023-01-10T03:19:43;6.77;;;5.37;;
36443;SDS011;24692;45.642;13.806;2023-01-10T03:22:18;7.10;;;5.20;;
36443;SDS011;24692;45.642;13.806;2023-01-10T03:24:47;7.10;;;5.90;;
36443;SDS011;24692;45.642;13.806;2023-01-10T03:33:00;6.07;;;5.03;;
36443;SDS011;24692;45.642;13.806;2023-01-10T03:43:47;7.40;;;5.03;;
36443;SDS011;24692;45.642;13.806;2023-01-10T03:46:43;6.13;;;4.63;;
36443;SDS011;24692;45.642;13.806;2023-01-10T03:49:16;6.47;;;4.63;;
36443;SDS011;24692;45.642;13.806;2023-01-10T03:51:44;6.23;;;4.50;;
36443;SDS011;24692;45.642;13.806;2023-01-10T03:54:11;6.40;;;4.50;;
36443;SDS011;24692;45.642;13.806;2023-01-10T03:56:44;5.60;;;4.43;;
36443;SDS011;24692;45.642;13.806;2023-01-10T03:59:11;5.23;;;4.30;;
36443;SDS011;24692;45.642;13.806;2023-01-10T04:01:37;5.93;;;4.57;;
36443;SDS011;24692;45.642;13.806;2023-01-10T04:04:03;6.47;;;4.83;;
36443;SDS011;24692;45.642;13.806;2023-01-10T04:06:29;5.63;;;4.43;;
36443;SDS011;24692;45.642;13.806;2023-01-10T04:08:54;6.10;;;4.50;;
36443;SDS011;24692;45.642;13.806;2023-01-10T04:11:20;6.10;;;4.77;;
36443;SDS011;24692;45.642;13.806;2023-01-10T04:13:46;5.27;;;4.50;;
36443;SDS011;24692;45.642;13.806;2023-01-10T04:16:12;6.20;;;4.40;;
36443;SDS011;24692;45.642;13.806;2023-01-10T04:18:38;6.23;;;4.60;;
36443;SDS011;24692;45.642;13.806;2023-01-10T04:21:04;4.83;;;4.13;;
36443;SDS011;24692;45.642;13.806;2023-01-10T04:23:30;5.70;;;3.97;;
36443;SDS011;24692;45.642;13.806;2023-01-10T04:25:56;5.77;;;3.87;;
36443;SDS011;24692;45.642;13.806;2023-01-10T04:28:22;4.47;;;3.70;;
36443;SDS011;24692;45.642;13.806;2023-01-10T04:30:47;5.73;;;4.00;;
36443;SDS011;24692;45.642;13.806;2023-01-10T04:33:13;5.83;;;3.83;;
36443;SDS011;24692;45.642;13.806;2023-01-10T04:35:39;4.50;;;3.80;;
36443;SDS011;24692;45.642;13.806;2023-01-10T04:38:04;4.20;;;3.80;;
36443;SDS011;24692;45.642;13.806;2023-01-10T04:40:30;4.03;;;3.50;;
36443;SDS011;24692;45.642;13.806;2023-01-10T04:42:56;4.27;;;3.60;;
36443;SDS011;24692;45.642;13.806;2023-01-10T04:45:21;4.97;;;3.70;;
36443;SDS011;24692;45.642;13.806;2023-01-10T04:47:48;5.57;;;3.93;;
36443;SDS011;24692;45.642;13.806;2023-01-10T04:50:15;4.17;;;3.77;;
36443;SDS011;24692;45.642;13.806;2023-01-10T04:52:41;6.20;;;4.03;;
36443;SDS011;24692;45.642;13.806;2023-01-10T04:55:07;4.37;;;3.60;;
36443;SDS011;24692;45.642;13.806;2023-01-10T04:57:34;5.17;;;3.83;;
36443;SDS011;24692;45.642;13.806;2023-01-10T04:59:59;4.27;;;3.43;;
36443;SDS011;24692;45.642;13.806;2023-01-10T05:02:25;4.00;;;3.17;;
36443;SDS011;24692;45.642;13.806;2023-01-10T05:04:50;4.10;;;3.40;;
36443;SDS011;24692;45.642;13.806;2023-01-10T05:07:16;4.73;;;3.30;;
36443;SDS011;24692;45.642;13.806;2023-01-10T05:09:42;3.93;;;3.13;;
36443;SDS011;24692;45.642;13.806;2023-01-10T05:12:08;4.53;;;3.23;;
36443;SDS011;24692;45.642;13.806;2023-01-10T05:14:33;3.20;;;2.90;;
36443;SDS011;24692;45.642;13.806;2023-01-10T05:16:59;4.03;;;3.13;;
36443;SDS011;24692;45.642;13.806;2023-01-10T05:19:24;3.77;;;3.10;;
36443;SDS011;24692;45.642;13.806;2023-01-10T05:21:50;4.60;;;3.07;;
36443;SDS011;24692;45.642;13.806;2023-01-10T05:24:16;3.57;;;3.00;;
36443;SDS011;24692;45.642;13.806;2023-01-10T05:26:42;3.40;;;3.00;;
36443;SDS011;24692;45.642;13.806;2023-01-10T05:29:11;4.20;;;2.90;;
36443;SDS011;24692;45.642;13.806;2023-01-10T05:31:38;3.33;;;2.70;;
36443;SDS011;24692;45.642;13.806;2023-01-10T05:34:04;3.47;;;2.97;;
36443;SDS011;24692;45.642;13.806;2023-01-10T05:36:30;3.80;;;3.03;;
36443;SDS011;24692;45.642;13.806;2023-01-10T05:38:56;3.67;;;2.87;;
36443;SDS011;24692;45.642;13.806;2023-01-10T05:41:22;3.33;;;3.00;;
36443;SDS011;24692;45.642;13.806;2023-01-10T05:43:48;3.50;;;2.90;;
36443;SDS011;24692;45.642;13.806;2023-01-10T05:46:13;3.43;;;2.77;;
36443;SDS011;24692;45.642;13.806;2023-01-10T05:48:39;2.93;;;2.63;;
36443;SDS011;24692;45.642;13.806;2023-01-10T05:51:05;5.17;;;3.53;;
36443;SDS011;24692;45.642;13.806;2023-01-10T05:53:31;4.77;;;3.43;;
36443;SDS011;24692;45.642;13.806;2023-01-10T05:55:58;5.87;;;2.90;;
36443;SDS011;24692;45.642;13.806;2023-01-10T05:58:25;3.43;;;3.07;;
36443;SDS011;24692;45.642;13.806;2023-01-10T06:00:53;4.17;;;2.90;;
36443;SDS011;24692;45.642;13.806;2023-01-10T06:03:20;3.37;;;2.80;;
36443;SDS011;24692;45.642;13.806;2023-01-10T06:05:46;3.53;;;3.10;;
36443;SDS011;24692;45.642;13.806;2023-01-10T06:08:11;3.93;;;3.10;;
36443;SDS011;24692;45.642;13.806;2023-01-10T06:10:37;5.93;;;3.30;;
36443;SDS011;24692;45.642;13.806;2023-01-10T06:13:03;4.27;;;3.30;;
36443;SDS011;24692;45.642;13.806;2023-01-10T06:15:34;4.27;;;3.10;;
36443;SDS011;24692;45.642;13.806;2023-01-10T06:18:00;4.90;;;3.20;;
36443;SDS011;24692;45.642;13.806;2023-01-10T06:20:25;9.77;;;5.90;;
36443;SDS011;24692;45.642;13.806;2023-01-10T06:22:52;6.67;;;4.77;;
36443;SDS011;24692;45.642;13.806;2023-01-10T06:25:18;4.03;;;3.50;;
36443;SDS011;24692;45.642;13.806;2023-01-10T06:27:43;5.07;;;3.53;;
36443;SDS011;24692;45.642;13.806;2023-01-10T06:30:10;5.67;;;3.17;;
36443;SDS011;24692;45.642;13.806;2023-01-10T06:32:37;31.30;;;15.53;;
36443;SDS011;24692;45.642;13.806;2023-01-10T06:35:04;6.70;;;4.27;;
36443;SDS011;24692;45.642;13.806;2023-01-10T06:37:30;4.97;;;3.57;;
36443;SDS011;24692;45.642;13.806;2023-01-10T06:39:56;6.00;;;3.80;;
36443;SDS011;24692;45.642;13.806;2023-01-10T06:42:22;5.17;;;3.83;;
36443;SDS011;24692;45.642;13.806;2023-01-10T06:44:47;7.60;;;4.27;;
36443;SDS011;24692;45.642;13.806;2023-01-10T06:47:13;11.70;;;4.93;;
36443;SDS011;24692;45.642;13.806;2023-01-10T06:49:38;6.37;;;4.63;;
36443;SDS011;24692;45.642;13.806;2023-01-10T06:52:04;8.73;;;4.40;;
36443;SDS011;24692;45.642;13.806;2023-01-10T06:54:30;11.07;;;5.27;;
36443;SDS011;24692;45.642;13.806;2023-01-10T06:56:55;8.50;;;4.90;;
36443;SDS011;24692;45.642;13.806;2023-01-10T06:59:21;11.37;;;5.13;;
36443;SDS011;24692;45.642;13.806;2023-01-10T07:01:47;6.63;;;4.63;;
36443;SDS011;24692;45.642;13.806;2023-01-10T07:04:13;5.40;;;4.10;;
36443;SDS011;24692;45.642;13.806;2023-01-10T07:06:38;7.43;;;4.70;;
36443;SDS011;24692;45.642;13.806;2023-01-10T07:09:05;6.57;;;4.60;;
36443;SDS011;24692;45.642;13.806;2023-01-10T07:11:32;6.83;;;5.20;;
36443;SDS011;24692;45.642;13.806;2023-01-10T07:14:01;8.90;;;5.27;;
36443;SDS011;24692;45.642;13.806;2023-01-10T07:16:27;8.50;;;5.27;;
36443;SDS011;24692;45.642;13.806;2023-01-10T07:18:53;8.40;;;5.40;;
36443;SDS011;24692;45.642;13.806;2023-01-10T07:21:18;8.90;;;6.00;;
36443;SDS011;24692;45.642;13.806;2023-01-10T07:23:47;8.80;;;6.10;;
36443;SDS011;24692;45.642;13.806;2023-01-10T07:26:16;8.77;;;6.43;;
36443;SDS011;24692;45.642;13.806;2023-01-10T07:28:49;9.70;;;5.97;;
36443;SDS011;24692;45.642;13.806;2023-01-10T07:31:15;10.43;;;6.57;;
36443;SDS011;24692;45.642;13.806;2023-01-10T07:33:42;9.90;;;6.37;;
36443;SDS011;24692;45.642;13.806;2023-01-10T07:36:08;9.10;;;6.33;;
36443;SDS011;24692;45.642;13.806;2023-01-10T07:38:34;9.27;;;6.13;;
36443;SDS011;24692;45.642;13.806;2023-01-10T07:41:01;8.83;;;5.80;;
36443;SDS011;24692;45.642;13.806;2023-01-10T07:43:27;19.83;;;12.93;;
36443;SDS011;24692;45.642;13.806;2023-01-10T07:45:53;13.47;;;8.90;;
36443;SDS011;24692;45.642;13.806;2023-01-10T07:48:21;17.00;;;10.43;;
36443;SDS011;24692;45.642;13.806;2023-01-10T07:50:47;16.40;;;9.90;;
36443;SDS011;24692;45.642;13.806;2023-01-10T07:53:13;16.90;;;9.80;;
36443;SDS011;24692;45.642;13.806;2023-01-10T07:55:38;13.53;;;8.90;;
36443;SDS011;24692;45.642;13.806;2023-01-10T07:58:04;12.80;;;8.00;;
36443;SDS011;24692;45.642;13.806;2023-01-10T08:00:32;11.47;;;6.83;;
36443;SDS011;24692;45.642;13.806;2023-01-10T08:02:58;12.37;;;7.07;;
36443;SDS011;24692;45.642;13.806;2023-01-10T08:05:24;10.43;;;6.87;;
36443;SDS011;24692;45.642;13.806;2023-01-10T08:07:50;8.03;;;6.53;;
36443;SDS011;24692;45.642;13.806;2023-01-10T08:10:16;9.93;;;6.20;;
36443;SDS011;24692;45.642;13.806;2023-01-10T08:12:42;10.40;;;6.57;;
36443;SDS011;24692;45.642;13.806;2023-01-10T08:15:08;10.43;;;6.63;;
36443;SDS011;24692;45.642;13.806;2023-01-10T08:17:34;11.50;;;5.97;;
36443;SDS011;24692;45.642;13.806;2023-01-10T08:20:01;7.57;;;5.70;;
36443;SDS011;24692;45.642;13.806;2023-01-10T08:22:27;12.43;;;8.27;;
36443;SDS011;24692;45.642;13.806;2023-01-10T08:24:52;11.07;;;6.57;;
36443;SDS011;24692;45.642;13.806;2023-01-10T08:27:18;8.43;;;5.20;;
36443;SDS011;24692;45.642;13.806;2023-01-10T08:29:44;8.73;;;6.37;;
36443;SDS011;24692;45.642;13.806;2023-01-10T08:32:10;7.00;;;5.30;;
36443;SDS011;24692;45.642;13.806;2023-01-10T08:34:36;7.77;;;5.70;;
36443;SDS011;24692;45.642;13.806;2023-01-10T08:37:01;7.10;;;5.67;;
36443;SDS011;24692;45.642;13.806;2023-01-10T08:39:27;9.10;;;5.40;;
36443;SDS011;24692;45.642;13.806;2023-01-10T08:41:54;6.78;;;5.45;;
36443;SDS011;24692;45.642;13.806;2023-01-10T08:44:20;7.72;;;5.72;;
36443;SDS011;24692;45.642;13.806;2023-01-10T08:46:46;10.53;;;6.40;;
36443;SDS011;24692;45.642;13.806;2023-01-10T08:49:12;8.95;;;5.50;;
36443;SDS011;24692;45.642;13.806;2023-01-10T08:51:38;9.02;;;5.13;;
36443;SDS011;24692;45.642;13.806;2023-01-10T08:54:03;9.73;;;5.67;;
36443;SDS011;24692;45.642;13.806;2023-01-10T08:56:30;9.90;;;5.47;;
36443;SDS011;24692;45.642;13.806;2023-01-10T08:58:56;9.93;;;5.90;;
36443;SDS011;24692;45.642;13.806;2023-01-10T09:01:22;7.80;;;5.90;;
36443;SDS011;24692;45.642;13.806;2023-01-10T09:03:47;10.50;;;5.90;;
36443;SDS011;24692;45.642;13.806;2023-01-10T09:06:14;9.20;;;5.90;;
36443;SDS011;24692;45.642;13.806;2023-01-10T09:08:41;10.90;;;6.75;;
36443;SDS011;24692;45.642;13.806;2023-01-10T09:11:07;10.73;;;7.20;;
36443;SDS011;24692;45.642;13.806;2023-01-10T09:13:32;44.28;;;9.35;;
36443;SDS011;24692;45.642;13.806;2023-01-10T09:16:04;29.50;;;7.45;;
36443;SDS011;24692;45.642;13.806;2023-01-10T09:18:33;32.30;;;9.30;;
36443;SDS011;24692;45.642;13.806;2023-01-10T09:20:59;13.68;;;6.82;;
36443;SDS011;24692;45.642;13.806;2023-01-10T09:23:25;15.15;;;8.73;;
36443;SDS011;24692;45.642;13.806;2023-01-10T09:25:52;16.17;;;8.98;;
36443;SDS011;24692;45.642;13.806;2023-01-10T09:28:39;12.30;;;8.57;;
36443;SDS011;24692;45.642;13.806;2023-01-10T09:31:05;12.65;;;9.02;;
36443;SDS011;24692;45.642;13.806;2023-01-10T09:33:32;14.48;;;8.93;;
36443;SDS011;24692;45.642;13.806;2023-01-10T09:35:59;12.70;;;8.50;;
36443;SDS011;24692;45.642;13.806;2023-01-10T09:38:24;13.00;;;9.20;;
36443;SDS011;24692;45.642;13.806;2023-01-10T09:44:35;15.02;;;8.27;;
36443;SDS011;24692;45.642;13.806;2023-01-10T09:47:02;15.18;;;10.02;;
36443;SDS011;24692;45.642;13.806;2023-01-10T09:52:24;26.38;;;11.80;;
36443;SDS011;24692;45.642;13.806;2023-01-10T09:54:55;14.50;;;9.48;;
36443;SDS011;24692;45.642;13.806;2023-01-10T09:57:23;21.73;;;8.63;;
36443;SDS011;24692;45.642;13.806;2023-01-10T09:59:50;21.38;;;9.80;;
36443;SDS011;24692;45.642;13.806;2023-01-10T10:02:33;30.75;;;11.63;;
36443;SDS011;24692;45.642;13.806;2023-01-10T10:05:23;15.82;;;10.65;;
36443;SDS011;24692;45.642;13.806;2023-01-10T10:07:56;14.63;;;11.10;;
36443;SDS011;24692;45.642;13.806;2023-01-10T10:16:06;17.63;;;11.52;;
36443;SDS011;24692;45.642;13.806;2023-01-10T10:21:35;14.07;;;11.00;;
36443;SDS011;24692;45.642;13.806;2023-01-10T10:27:38;19.87;;;12.30;;
36443;SDS011;24692;45.642;13.806;2023-01-10T10:33:29;17.95;;;11.85;;
36443;SDS011;24692;45.642;13.806;2023-01-10T10:39:19;13.47;;;10.30;;
36443;SDS011;24692;45.642;13.806;2023-01-10T10:41:50;15.23;;;10.83;;
36443;SDS011;24692;45.642;13.806;2023-01-10T10:44:26;15.38;;;10.05;;
36443;SDS011;24692;45.642;13.806;2023-01-10T10:47:05;14.67;;;10.63;;
36443;SDS011;24692;45.642;13.806;2023-01-10T10:49:44;13.55;;;10.48;;
36443;SDS011;24692;45.642;13.806;2023-01-10T10:52:27;15.47;;;11.13;;
36443;SDS011;24692;45.642;13.806;2023-01-10T10:54:56;18.13;;;11.37;;
36443;SDS011;24692;45.642;13.806;2023-01-10T10:57:27;16.15;;;10.57;;
36443;SDS011;24692;45.642;13.806;2023-01-10T10:59:55;17.95;;;11.15;;
36443;SDS011;24692;45.642;13.806;2023-01-10T11:02:26;13.82;;;9.85;;
36443;SDS011;24692;45.642;13.806;2023-01-10T11:04:54;19.13;;;10.65;;
36443;SDS011;24692;45.642;13.806;2023-01-10T11:07:23;15.00;;;11.10;;
36443;SDS011;24692;45.642;13.806;2023-01-10T11:09:52;16.60;;;11.60;;
36443;SDS011;24692;45.642;13.806;2023-01-10T11:12:18;16.97;;;12.00;;
36443;SDS011;24692;45.642;13.806;2023-01-10T11:14:50;17.77;;;12.77;;
36443;SDS011;24692;45.642;13.806;2023-01-10T11:17:17;20.70;;;13.73;;
36443;SDS011;24692;45.642;13.806;2023-01-10T11:22:47;18.83;;;13.00;;
36443;SDS011;24692;45.642;13.806;2023-01-10T11:25:15;16.77;;;11.83;;
36443;SDS011;24692;45.642;13.806;2023-01-10T11:27:50;18.33;;;12.47;;
36443;SDS011;24692;45.642;13.806;2023-01-10T11:30:28;17.23;;;12.53;;
36443;SDS011;24692;45.642;13.806;2023-01-10T11:33:02;15.43;;;11.17;;
36443;SDS011;24692;45.642;13.806;2023-01-10T11:35:31;16.37;;;10.90;;
36443;SDS011;24692;45.642;13.806;2023-01-10T11:38:20;18.60;;;12.00;;
36443;SDS011;24692;45.642;13.806;2023-01-10T11:40:54;18.57;;;10.17;;
36443;SDS011;24692;45.642;13.806;2023-01-10T11:43:32;16.20;;;11.30;;
36443;SDS011;24692;45.642;13.806;2023-01-10T11:46:20;15.13;;;10.80;;
36443;SDS011;24692;45.642;13.806;2023-01-10T11:51:36;18.70;;;10.75;;
36443;SDS011;24692;45.642;13.806;2023-01-10T11:54:08;16.93;;;12.33;;
36443;SDS011;24692;45.642;13.806;2023-01-10T11:56:37;18.40;;;10.57;;
36443;SDS011;24692;45.642;13.806;2023-01-10T11:59:11;19.88;;;12.80;;
36443;SDS011;24692;45.642;13.806;2023-01-10T12:01:40;19.38;;;12.60;;
36443;SDS011;24692;45.642;13.806;2023-01-10T12:04:15;18.50;;;9.60;;
36443;SDS011;24692;45.642;13.806;2023-01-10T12:06:45;19.58;;;12.98;;
36443;SDS011;24692;45.642;13.806;2023-01-10T12:09:33;23.50;;;11.27;;
36443;SDS011;24692;45.642;13.806;2023-01-10T12:12:24;15.63;;;12.48;;
36443;SDS011;24692;45.642;13.806;2023-01-10T12:14:56;23.52;;;10.93;;
36443;SDS011;24692;45.642;13.806;2023-01-10T12:17:33;20.73;;;13.33;;
36443;SDS011;24692;45.642;13.806;2023-01-10T12:20:01;20.97;;;13.10;;
36443;SDS011;24692;45.642;13.806;2023-01-10T12:22:36;17.67;;;13.27;;
36443;SDS011;24692;45.642;13.806;2023-01-10T12:25:13;20.98;;;14.35;;
36443;SDS011;24692;45.642;13.806;2023-01-10T12:27:40;22.93;;;15.20;;
36443;SDS011;24692;45.642;13.806;2023-01-10T12:30:12;19.40;;;13.70;;
36443;SDS011;24692;45.642;13.806;2023-01-10T12:32:51;22.40;;;14.67;;
36443;SDS011;24692;45.642;13.806;2023-01-10T12:35:22;21.70;;;13.77;;
36443;SDS011;24692;45.642;13.806;2023-01-10T12:41:17;17.87;;;13.07;;
36443;SDS011;24692;45.642;13.806;2023-01-10T12:44:11;19.50;;;12.67;;
36443;SDS011;24692;45.642;13.806;2023-01-10T12:47:04;20.30;;;13.20;;
36443;SDS011;24692;45.642;13.806;2023-01-10T12:52:34;18.50;;;12.70;;
36443;SDS011;24692;45.642;13.806;2023-01-10T12:55:19;23.87;;;14.07;;
36443;SDS011;24692;45.642;13.806;2023-01-10T12:57:48;17.83;;;12.90;;
36443;SDS011;24692;45.642;13.806;2023-01-10T13:00:22;18.37;;;12.63;;
36443;SDS011;24692;45.642;13.806;2023-01-10T13:02:54;19.70;;;12.10;;
36443;SDS011;24692;45.642;13.806;2023-01-10T13:05:23;18.20;;;12.50;;
36443;SDS011;24692;45.642;13.806;2023-01-10T13:07:51;18.53;;;12.83;;
36443;SDS011;24692;45.642;13.806;2023-01-10T13:10:23;18.00;;;12.17;;
36443;SDS011;24692;45.642;13.806;2023-01-10T13:12:55;21.77;;;11.67;;
36443;SDS011;24692;45.642;13.806;2023-01-10T13:15:27;15.23;;;11.20;;
36443;SDS011;24692;45.642;13.806;2023-01-10T13:18:00;17.23;;;11.83;;
36443;SDS011;24692;45.642;13.806;2023-01-10T13:20:39;18.37;;;11.13;;
36443;SDS011;24692;45.642;13.806;2023-01-10T13:23:14;15.80;;;11.07;;
36443;SDS011;24692;45.642;13.806;2023-01-10T13:25:58;18.23;;;11.30;;
36443;SDS011;24692;45.642;13.806;2023-01-10T13:28:30;14.63;;;10.87;;
36443;SDS011;24692;45.642;13.806;2023-01-10T13:30:59;16.47;;;10.53;;
36443;SDS011;24692;45.642;13.806;2023-01-10T13:33:30;23.20;;;11.20;;
36443;SDS011;24692;45.642;13.806;2023-01-10T13:36:18;23.13;;;10.93;;
36443;SDS011;24692;45.642;13.806;2023-01-10T13:38:51;14.07;;;10.93;;
36443;SDS011;24692;45.642;13.806;2023-01-10T13:41:19;17.87;;;11.03;;
36443;SDS011;24692;45.642;13.806;2023-01-10T13:46:34;16.23;;;11.10;;
36443;SDS011;24692;45.642;13.806;2023-01-10T13:51:35;15.47;;;10.43;;
36443;SDS011;24692;45.642;13.806;2023-01-10T13:54:36;13.77;;;9.77;;
36443;SDS011;24692;45.642;13.806;2023-01-10T13:56:54;13.23;;;10.00;;
36443;SDS011;24692;45.642;13.806;2023-01-10T14:02:38;14.20;;;9.57;;
36443;SDS011;24692;45.642;13.806;2023-01-10T14:05:00;17.33;;;9.03;;
36443;SDS011;24692;45.642;13.806;2023-01-10T14:07:31;13.17;;;9.57;;
36443;SDS011;24692;45.642;13.806;2023-01-10T14:10:06;13.83;;;9.63;;
36443;SDS011;24692;45.642;13.806;2023-01-10T14:12:37;12.17;;;8.60;;
36443;SDS011;24692;45.642;13.806;2023-01-10T14:15:22;13.63;;;9.13;;
36443;SDS011;24692;45.642;13.806;2023-01-10T14:17:57;12.97;;;9.80;;
36443;SDS011;24692;45.642;13.806;2023-01-10T14:20:29;14.73;;;9.37;;
36443;SDS011;24692;45.642;13.806;2023-01-10T14:23:00;20.90;;;10.20;;
36443;SDS011;24692;45.642;13.806;2023-01-10T14:25:32;13.00;;;8.57;;
36443;SDS011;24692;45.642;13.806;2023-01-10T14:28:00;16.13;;;9.47;;
36443;SDS011;24692;45.642;13.806;2023-01-10T14:30:33;14.67;;;9.63;;
36443;SDS011;24692;45.642;13.806;2023-01-10T14:35:37;15.30;;;9.87;;
36443;SDS011;24692;45.642;13.806;2023-01-10T14:38:07;17.83;;;10.03;;
36443;SDS011;24692;45.642;13.806;2023-01-10T14:40:54;17.90;;;11.13;;
36443;SDS011;24692;45.642;13.806;2023-01-10T14:43:32;14.80;;;10.50;;
36443;SDS011;24692;45.642;13.806;2023-01-10T14:46:19;15.80;;;10.13;;
36443;SDS011;24692;45.642;13.806;2023-01-10T14:48:52;15.70;;;11.20;;
36443;SDS011;24692;45.642;13.806;2023-01-10T14:53:59;22.27;;;10.30;;
36443;SDS011;24692;45.642;13.806;2023-01-10T14:56:28;35.13;;;11.80;;
36443;SDS011;24692;45.642;13.806;2023-01-10T15:01:48;16.10;;;9.77;;
36443;SDS011;24692;45.642;13.806;2023-01-10T15:04:17;13.27;;;9.57;;
36443;SDS011;24692;45.642;13.806;2023-01-10T15:09:17;14.60;;;8.63;;
36443;SDS011;24692;45.642;13.806;2023-01-10T15:11:43;21.60;;;10.20;;
36443;SDS011;24692;45.642;13.806;2023-01-10T15:14:11;20.87;;;9.93;;
36443;SDS011;24692;45.642;13.806;2023-01-10T15:16:41;23.63;;;10.50;;
36443;SDS011;24692;45.642;13.806;2023-01-10T15:19:12;23.93;;;10.93;;
36443;SDS011;24692;45.642;13.806;2023-01-10T15:21:43;22.70;;;12.47;;
36443;SDS011;24692;45.642;13.806;2023-01-10T15:24:43;32.87;;;20.43;;
36443;SDS011;24692;45.642;13.806;2023-01-10T15:27:03;17.77;;;12.73;;
36443;SDS011;24692;45.642;13.806;2023-01-10T15:29:38;17.97;;;11.10;;
36443;SDS011;24692;45.642;13.806;2023-01-10T15:32:22;19.17;;;10.97;;
36443;SDS011;24692;45.642;13.806;2023-01-10T15:34:59;18.97;;;10.60;;
36443;SDS011;24692;45.642;13.806;2023-01-10T15:37:30;17.87;;;12.03;;
36443;SDS011;24692;45.642;13.806;2023-01-10T15:40:01;18.53;;;11.40;;
36443;SDS011;24692;45.642;13.806;2023-01-10T15:42:29;23.00;;;12.40;;
36443;SDS011;24692;45.642;13.806;2023-01-10T15:44:55;19.20;;;11.50;;
36443;SDS011;24692;45.642;13.806;2023-01-10T15:53:03;25.83;;;16.17;;
36443;SDS011;24692;45.642;13.806;2023-01-10T15:55:47;21.00;;;15.33;;
36443;SDS011;24692;45.642;13.806;2023-01-10T15:58:16;26.67;;;15.00;;
36443;SDS011;24692;45.642;13.806;2023-01-10T16:00:56;29.37;;;15.27;;
36443;SDS011;24692;45.642;13.806;2023-01-10T16:03:37;25.83;;;15.27;;
36443;SDS011;24692;45.642;13.806;2023-01-10T16:06:13;23.00;;;13.90;;
36443;SDS011;24692;45.642;13.806;2023-01-10T16:08:49;22.93;;;14.27;;
36443;SDS011;24692;45.642;13.806;2023-01-10T16:11:38;28.83;;;14.77;;
36443;SDS011;24692;45.642;13.806;2023-01-10T16:14:24;25.27;;;15.10;;
36443;SDS011;24692;45.642;13.806;2023-01-10T16:16:51;24.70;;;14.50;;
36443;SDS011;24692;45.642;13.806;2023-01-10T16:19:16;25.07;;;14.77;;
36443;SDS011;24692;45.642;13.806;2023-01-10T16:21:43;25.17;;;15.13;;
36443;SDS011;24692;45.642;13.806;2023-01-10T16:24:16;23.80;;;15.27;;